Time;durP1;ratioP1;P1;durP2;ratioP2;P2;SDS_P1;SDS_P2;PMS_P1;PMS_P2;Temp;Humidity;BMP_temperature;BMP_pressure;BME280_temperature;BME280_humidity;BME280_pressure;Samples;Min_cycle;Max_cycle;Signal;HPM_P1;HPM_P2
2022/03/31 00:00:00;;;;;;;24.00;10.25;;;;;;;;;;5019611;28;20084;-68
2022/03/31 00:02:25;;;;;;;17.83;9.93;;;;;;;;;;5012407;28;20022;-68
2022/03/31 00:04:50;;;;;;;23.33;11.25;;;;;;;;;;5022057;28;20032;-68
2022/03/31 00:07:16;;;;;;;23.27;10.55;;;;;;;;;;5024465;28;20495;-68
2022/03/31 00:09:41;;;;;;;23.87;11.60;;;;;;;;;;5028980;28;20021;-68
2022/03/31 00:12:07;;;;;;;26.20;12.15;;;;;;;;;;5028329;28;20265;-68
2022/03/31 00:14:32;;;;;;;22.15;11.23;;;;;;;;;;5014377;28;20025;-68
2022/03/31 00:16:57;;;;;;;29.05;12.40;;;;;;;;;;5018160;28;20390;-68
2022/03/31 00:19:23;;;;;;;26.70;12.05;;;;;;;;;;4999946;28;20030;-68
2022/03/31 00:21:48;;;;;;;22.80;11.48;;;;;;;;;;5015143;28;20020;-67
2022/03/31 00:24:13;;;;;;;19.80;11.75;;;;;;;;;;5016453;28;20106;-66
2022/03/31 00:26:39;;;;;;;28.83;13.10;;;;;;;;;;5005490;28;20026;-66
2022/03/31 00:29:05;;;;;;;21.83;12.82;;;;;;;;;;5019279;28;20025;-66
2022/03/31 00:31:30;;;;;;;23.90;13.52;;;;;;;;;;5019070;28;20509;-66
2022/03/31 00:33:55;;;;;;;28.08;13.07;;;;;;;;;;5023796;28;20100;-66
2022/03/31 00:36:20;;;;;;;26.38;13.77;;;;;;;;;;5027214;28;20108;-67
2022/03/31 00:39:28;;;;;;;27.75;14.18;;;;;;;;;;5027406;28;20034;-67
2022/03/31 00:41:34;;;;;;;37.67;14.02;;;;;;;;;;5022673;28;20109;-65
2022/03/31 00:44:00;;;;;;;29.98;15.45;;;;;;;;;;5022332;28;20025;-66
2022/03/31 00:46:25;;;;;;;35.35;16.17;;;;;;;;;;5023685;28;20022;-66
2022/03/31 00:48:50;;;;;;;33.13;15.68;;;;;;;;;;5024264;28;20536;-66
2022/03/31 00:51:16;;;;;;;28.60;15.50;;;;;;;;;;5023711;28;20014;-65
2022/03/31 00:53:41;;;;;;;36.03;15.35;;;;;;;;;;5023587;28;20037;-66
2022/03/31 00:56:07;;;;;;;32.45;15.30;;;;;;;;;;5024363;28;20017;-67
2022/03/31 00:58:33;;;;;;;30.92;15.57;;;;;;;;;;5022014;28;20021;-66
2022/03/31 01:00:58;;;;;;;37.85;15.38;;;;;;;;;;5017727;28;20052;-64
2022/03/31 01:03:24;;;;;;;33.60;15.70;;;;;;;;;;5020653;28;20057;-66
2022/03/31 01:05:49;;;;;;;38.60;16.67;;;;;;;;;;5019488;28;20096;-66
2022/03/31 01:08:14;;;;;;;40.92;18.60;;;;;;;;;;5021866;28;20021;-66
2022/03/31 01:10:40;;;;;;;44.22;19.33;;;;;;;;;;5019511;28;20022;-65
2022/03/31 01:13:06;;;;;;;39.70;19.00;;;;;;;;;;5021212;28;20017;-66
2022/03/31 01:15:31;;;;;;;36.78;18.35;;;;;;;;;;5019633;28;20038;-66
2022/03/31 01:17:56;;;;;;;37.53;19.50;;;;;;;;;;5022370;28;20520;-67
2022/03/31 01:20:22;;;;;;;44.47;18.50;;;;;;;;;;5017959;28;20045;-66
2022/03/31 01:22:48;;;;;;;49.53;20.50;;;;;;;;;;5023405;28;20045;-66
2022/03/31 01:25:13;;;;;;;54.15;19.50;;;;;;;;;;5014546;28;20335;-66
2022/03/31 01:27:40;;;;;;;44.83;20.10;;;;;;;;;;5021284;28;20084;-66
2022/03/31 01:30:09;;;;;;;43.55;20.80;;;;;;;;;;5019299;28;20026;-65
2022/03/31 01:32:34;;;;;;;43.42;20.52;;;;;;;;;;5027662;28;20434;-65
2022/03/31 01:34:59;;;;;;;44.65;19.40;;;;;;;;;;5018170;28;20156;-65
2022/03/31 01:37:24;;;;;;;43.83;20.35;;;;;;;;;;5022909;28;20021;-67
2022/03/31 01:39:50;;;;;;;39.90;19.25;;;;;;;;;;5025264;28;20517;-66
2022/03/31 01:42:15;;;;;;;42.63;19.98;;;;;;;;;;5024428;28;20025;-67
2022/03/31 01:44:40;;;;;;;44.20;19.73;;;;;;;;;;5020550;28;20029;-66
2022/03/31 01:47:06;;;;;;;48.60;19.95;;;;;;;;;;5020834;28;20021;-66
2022/03/31 01:49:31;;;;;;;45.35;21.73;;;;;;;;;;5018311;28;20017;-66
2022/03/31 01:51:56;;;;;;;45.85;22.23;;;;;;;;;;5027054;28;20021;-66
2022/03/31 01:54:22;;;;;;;41.45;20.05;;;;;;;;;;5009661;28;20033;-66
2022/03/31 01:56:48;;;;;;;40.17;20.40;;;;;;;;;;5011475;28;20028;-66
2022/03/31 01:59:13;;;;;;;46.85;20.25;;;;;;;;;;5023303;28;20033;-67
2022/03/31 02:01:39;;;;;;;49.35;22.00;;;;;;;;;;5026186;28;20707;-66
2022/03/31 02:04:04;;;;;;;48.08;23.90;;;;;;;;;;5020063;28;20534;-66
2022/03/31 02:06:30;;;;;;;50.33;21.50;;;;;;;;;;5036355;23;20536;-66
2022/03/31 02:08:56;;;;;;;47.58;21.77;;;;;;;;;;5035494;28;20029;-66
2022/03/31 02:11:22;;;;;;;54.70;23.75;;;;;;;;;;5016254;28;20100;-66
2022/03/31 02:13:47;;;;;;;46.60;20.85;;;;;;;;;;5037687;28;20104;-67
2022/03/31 02:16:13;;;;;;;51.40;21.58;;;;;;;;;;5033306;28;20048;-66
2022/03/31 02:18:38;;;;;;;48.85;20.38;;;;;;;;;;5034368;28;20053;-67
2022/03/31 02:21:03;;;;;;;52.05;22.42;;;;;;;;;;5038038;28;20481;-66
2022/03/31 02:23:28;;;;;;;47.10;20.13;;;;;;;;;;5032769;28;20026;-66
2022/03/31 02:25:54;;;;;;;47.33;21.13;;;;;;;;;;5033743;28;20076;-66
2022/03/31 02:28:19;;;;;;;48.80;21.83;;;;;;;;;;5042858;28;20025;-67
2022/03/31 02:30:44;;;;;;;45.25;19.65;;;;;;;;;;5038901;28;20032;-66
2022/03/31 02:33:09;;;;;;;43.75;20.25;;;;;;;;;;5035799;28;20029;-67
2022/03/31 02:35:34;;;;;;;39.88;19.85;;;;;;;;;;5033502;28;20029;-66
2022/03/31 02:38:00;;;;;;;48.40;19.80;;;;;;;;;;5037139;28;20394;-67
2022/03/31 02:40:25;;;;;;;43.38;17.70;;;;;;;;;;5040234;28;20278;-66
2022/03/31 02:42:50;;;;;;;43.30;18.50;;;;;;;;;;5039045;28;20024;-66
2022/03/31 02:45:16;;;;;;;46.08;20.05;;;;;;;;;;5034205;28;20029;-66
2022/03/31 02:47:44;;;;;;;43.03;18.85;;;;;;;;;;5043184;28;20028;-66
2022/03/31 02:50:10;;;;;;;41.33;20.35;;;;;;;;;;5028269;28;20045;-66
2022/03/31 02:55:25;;;;;;;39.58;18.45;;;;;;;;;;5031921;28;20036;-66
2022/03/31 02:57:51;;;;;;;51.85;18.25;;;;;;;;;;5030989;28;20477;-66
2022/03/31 03:00:16;;;;;;;43.97;20.52;;;;;;;;;;5039085;28;20067;-66
2022/03/31 03:02:41;;;;;;;50.60;21.02;;;;;;;;;;5035739;28;20024;-66
2022/03/31 03:05:07;;;;;;;42.53;19.73;;;;;;;;;;5038163;28;20082;-66
2022/03/31 03:07:32;;;;;;;42.35;19.13;;;;;;;;;;5034220;28;20306;-66
2022/03/31 03:09:57;;;;;;;45.38;17.90;;;;;;;;;;5039138;28;20462;-66
2022/03/31 03:12:22;;;;;;;45.22;20.02;;;;;;;;;;5040148;28;20021;-66
2022/03/31 03:14:49;;;;;;;43.67;17.97;;;;;;;;;;5034599;28;20026;-66
2022/03/31 03:17:14;;;;;;;36.22;17.45;;;;;;;;;;5032092;28;20767;-67
2022/03/31 03:19:39;;;;;;;40.15;18.65;;;;;;;;;;5035928;28;20064;-66
2022/03/31 03:22:04;;;;;;;44.88;18.35;;;;;;;;;;5017782;28;20061;-66
2022/03/31 03:24:29;;;;;;;46.35;18.90;;;;;;;;;;5040269;28;20051;-65
2022/03/31 03:26:55;;;;;;;49.30;17.47;;;;;;;;;;5039150;28;20029;-65
2022/03/31 03:29:20;;;;;;;34.38;16.92;;;;;;;;;;5020729;28;20264;-66
2022/03/31 03:31:45;;;;;;;39.80;18.15;;;;;;;;;;5037301;28;20139;-66
2022/03/31 03:34:10;;;;;;;39.03;19.70;;;;;;;;;;5035366;28;20028;-66
2022/03/31 03:36:36;;;;;;;33.77;16.67;;;;;;;;;;5037589;28;20119;-66
2022/03/31 03:39:01;;;;;;;33.00;15.95;;;;;;;;;;5041507;28;20268;-66
2022/03/31 03:41:26;;;;;;;35.90;17.55;;;;;;;;;;5045548;28;20028;-67
2022/03/31 03:43:51;;;;;;;44.07;18.63;;;;;;;;;;5039413;28;20009;-66
2022/03/31 03:46:16;;;;;;;44.42;18.65;;;;;;;;;;5045153;28;20758;-66
2022/03/31 03:48:42;;;;;;;41.75;18.63;;;;;;;;;;5041011;28;20473;-66
2022/03/31 03:51:09;;;;;;;34.97;18.40;;;;;;;;;;5039681;28;20014;-66
2022/03/31 03:53:34;;;;;;;42.97;19.65;;;;;;;;;;5039808;28;20040;-66
2022/03/31 03:55:59;;;;;;;43.55;19.35;;;;;;;;;;5038513;28;20482;-66
2022/03/31 03:58:24;;;;;;;36.30;17.58;;;;;;;;;;5044197;28;20021;-66
2022/03/31 04:00:50;;;;;;;39.42;18.13;;;;;;;;;;5043331;28;20031;-66
2022/03/31 04:03:15;;;;;;;42.22;17.95;;;;;;;;;;5037635;28;20047;-66
2022/03/31 04:05:40;;;;;;;48.47;19.37;;;;;;;;;;5040760;28;20032;-66
2022/03/31 04:08:05;;;;;;;50.85;19.25;;;;;;;;;;5033314;28;20318;-66
2022/03/31 04:10:33;;;;;;;39.28;18.48;;;;;;;;;;5041117;28;20470;-66
2022/03/31 04:12:58;;;;;;;40.38;18.33;;;;;;;;;;5040819;28;20381;-66
2022/03/31 04:15:23;;;;;;;40.90;18.55;;;;;;;;;;5043053;28;20020;-66
2022/03/31 04:17:48;;;;;;;38.90;19.07;;;;;;;;;;5041989;28;20386;-66
2022/03/31 04:20:14;;;;;;;41.20;19.98;;;;;;;;;;5043307;28;20271;-66
2022/03/31 04:22:39;;;;;;;46.13;19.92;;;;;;;;;;5043123;28;20366;-66
2022/03/31 04:25:05;;;;;;;42.80;19.73;;;;;;;;;;5042762;28;20017;-66
2022/03/31 04:27:30;;;;;;;41.72;19.42;;;;;;;;;;5037769;28;20021;-66
2022/03/31 04:29:56;;;;;;;49.15;19.25;;;;;;;;;;5042013;28;20187;-66
2022/03/31 04:32:21;;;;;;;44.42;20.20;;;;;;;;;;5038889;28;20021;-66
2022/03/31 04:34:46;;;;;;;47.55;20.85;;;;;;;;;;5042279;28;20603;-66
2022/03/31 04:37:11;;;;;;;49.40;20.60;;;;;;;;;;5039764;28;20028;-66
2022/03/31 04:39:36;;;;;;;48.22;19.42;;;;;;;;;;5034213;28;20037;-66
2022/03/31 04:42:02;;;;;;;46.45;18.85;;;;;;;;;;5035998;28;20017;-66
2022/03/31 04:44:28;;;;;;;44.58;19.48;;;;;;;;;;5022918;28;20409;-66
2022/03/31 04:46:53;;;;;;;48.22;22.15;;;;;;;;;;5037618;28;20020;-66
2022/03/31 04:49:18;;;;;;;40.85;19.70;;;;;;;;;;5032816;28;20105;-66
2022/03/31 04:51:43;;;;;;;39.80;19.55;;;;;;;;;;5038153;28;20024;-66
2022/03/31 04:54:08;;;;;;;53.53;20.93;;;;;;;;;;5036114;28;20064;-66
2022/03/31 04:56:34;;;;;;;45.03;18.83;;;;;;;;;;5023735;28;20668;-66
2022/03/31 04:58:59;;;;;;;38.80;18.13;;;;;;;;;;5028596;28;20272;-67
2022/03/31 05:01:24;;;;;;;56.88;21.05;;;;;;;;;;5039305;28;20087;-68
2022/03/31 05:03:50;;;;;;;48.55;16.77;;;;;;;;;;5042719;28;20481;-67
2022/03/31 05:06:16;;;;;;;42.67;18.23;;;;;;;;;;5032972;28;20032;-67
2022/03/31 05:08:41;;;;;;;44.45;19.67;;;;;;;;;;5015653;28;20367;-66
2022/03/31 05:11:07;;;;;;;39.72;18.40;;;;;;;;;;5027808;28;20044;-66
2022/03/31 05:13:32;;;;;;;42.22;17.98;;;;;;;;;;5025570;28;20014;-67
2022/03/31 05:15:57;;;;;;;46.95;17.98;;;;;;;;;;5029182;28;20528;-67
2022/03/31 05:18:22;;;;;;;46.15;18.30;;;;;;;;;;5037795;28;20024;-67
2022/03/31 05:20:48;;;;;;;38.75;17.60;;;;;;;;;;5036679;28;20021;-66
2022/03/31 05:23:13;;;;;;;39.97;17.40;;;;;;;;;;5032721;28;20025;-67
2022/03/31 05:25:39;;;;;;;45.92;18.10;;;;;;;;;;5033754;28;20018;-67
2022/03/31 05:28:04;;;;;;;40.13;18.15;;;;;;;;;;5028018;28;20018;-67
2022/03/31 05:30:30;;;;;;;41.97;17.90;;;;;;;;;;5028538;28;20121;-66
2022/03/31 05:32:55;;;;;;;39.35;16.75;;;;;;;;;;5039074;28;20099;-66
2022/03/31 05:35:21;;;;;;;37.88;17.40;;;;;;;;;;5044807;28;20104;-67
2022/03/31 05:37:46;;;;;;;40.40;16.98;;;;;;;;;;5036441;28;20064;-67
2022/03/31 05:40:13;;;;;;;37.53;16.63;;;;;;;;;;5031964;28;20104;-67
2022/03/31 05:42:38;;;;;;;41.75;15.80;;;;;;;;;;5033650;28;20022;-67
2022/03/31 05:45:04;;;;;;;42.08;17.75;;;;;;;;;;5035957;28;20021;-67
2022/03/31 05:47:29;;;;;;;42.28;16.85;;;;;;;;;;5033922;28;20453;-67
2022/03/31 05:49:55;;;;;;;40.30;17.75;;;;;;;;;;5035380;28;20017;-67
2022/03/31 05:52:20;;;;;;;43.90;17.42;;;;;;;;;;5034717;28;20038;-67
2022/03/31 05:54:46;;;;;;;44.75;18.75;;;;;;;;;;5014583;28;20032;-66
2022/03/31 05:57:11;;;;;;;40.65;18.10;;;;;;;;;;5036873;28;20104;-66
2022/03/31 05:59:36;;;;;;;38.45;16.77;;;;;;;;;;5028924;28;20107;-66
2022/03/31 06:02:02;;;;;;;47.00;19.23;;;;;;;;;;5037134;28;20029;-66
2022/03/31 06:04:27;;;;;;;42.75;17.02;;;;;;;;;;5033710;28;20279;-66
2022/03/31 06:06:52;;;;;;;43.72;17.60;;;;;;;;;;5038315;28;20021;-67
2022/03/31 06:09:17;;;;;;;40.88;17.13;;;;;;;;;;5035528;28;20096;-66
2022/03/31 06:11:43;;;;;;;34.65;15.77;;;;;;;;;;5040215;28;20029;-67
2022/03/31 06:14:09;;;;;;;45.92;18.25;;;;;;;;;;5040376;28;20488;-66
2022/03/31 06:16:34;;;;;;;38.67;17.52;;;;;;;;;;5036136;28;20093;-67
2022/03/31 06:18:59;;;;;;;41.80;17.33;;;;;;;;;;5037801;28;20062;-67
2022/03/31 06:21:25;;;;;;;49.47;18.33;;;;;;;;;;5034266;28;20382;-67
2022/03/31 06:23:50;;;;;;;41.05;17.95;;;;;;;;;;5037540;28;20494;-67
2022/03/31 06:26:15;;;;;;;42.80;17.08;;;;;;;;;;5031354;28;20401;-66
2022/03/31 06:28:40;;;;;;;43.15;17.52;;;;;;;;;;5037969;28;20105;-67
2022/03/31 06:31:06;;;;;;;41.47;17.38;;;;;;;;;;5031992;28;20080;-66
2022/03/31 06:33:31;;;;;;;43.58;16.42;;;;;;;;;;5034621;28;20025;-66
2022/03/31 06:35:56;;;;;;;35.17;15.60;;;;;;;;;;5035364;28;20104;-66
2022/03/31 06:38:22;;;;;;;35.22;16.00;;;;;;;;;;5032129;28;20026;-66
2022/03/31 06:41:06;;;;;;;41.22;16.27;;;;;;;;;;5036295;28;20029;-67
2022/03/31 06:43:31;;;;;;;37.20;15.10;;;;;;;;;;5031622;28;20083;-66
2022/03/31 06:45:56;;;;;;;43.25;17.48;;;;;;;;;;5040256;28;20029;-66
2022/03/31 06:48:22;;;;;;;34.10;14.10;;;;;;;;;;5035863;28;20033;-66
2022/03/31 06:50:47;;;;;;;38.85;15.10;;;;;;;;;;5038780;28;20063;-66
2022/03/31 06:53:12;;;;;;;31.98;15.05;;;;;;;;;;5034034;28;20096;-66
2022/03/31 06:55:37;;;;;;;35.10;14.95;;;;;;;;;;5037361;28;20017;-67
2022/03/31 06:58:02;;;;;;;35.53;16.40;;;;;;;;;;5035848;28;20020;-67
2022/03/31 07:00:29;;;;;;;34.63;16.20;;;;;;;;;;5032766;28;20025;-66
2022/03/31 07:02:54;;;;;;;38.08;16.95;;;;;;;;;;5039432;28;20433;-66
2022/03/31 07:05:20;;;;;;;35.72;15.57;;;;;;;;;;5041346;28;20029;-66
2022/03/31 07:07:45;;;;;;;31.95;14.10;;;;;;;;;;5036390;28;20033;-67
2022/03/31 07:10:11;;;;;;;41.97;14.20;;;;;;;;;;5043877;28;20022;-66
2022/03/31 07:12:37;;;;;;;32.40;15.02;;;;;;;;;;5037639;28;20462;-66
2022/03/31 07:15:02;;;;;;;30.45;12.65;;;;;;;;;;5042092;28;20021;-66
2022/03/31 07:17:28;;;;;;;44.35;16.55;;;;;;;;;;5035947;28;20017;-66
2022/03/31 07:19:53;;;;;;;31.02;13.13;;;;;;;;;;5047473;28;20147;-66
2022/03/31 07:22:18;;;;;;;38.08;13.82;;;;;;;;;;5042470;28;20100;-66
2022/03/31 07:24:43;;;;;;;33.42;13.88;;;;;;;;;;5039534;28;20060;-66
2022/03/31 07:27:09;;;;;;;32.63;13.57;;;;;;;;;;5032577;28;20440;-66
2022/03/31 07:29:34;;;;;;;29.35;10.70;;;;;;;;;;5032680;28;20028;-66
2022/03/31 07:31:59;;;;;;;40.70;14.85;;;;;;;;;;5033288;28;20475;-66
2022/03/31 07:34:24;;;;;;;35.53;13.77;;;;;;;;;;5033000;28;20030;-66
2022/03/31 07:36:49;;;;;;;35.45;11.95;;;;;;;;;;5033038;28;20025;-67
2022/03/31 07:39:15;;;;;;;36.63;13.73;;;;;;;;;;5033202;28;20386;-66
2022/03/31 07:41:40;;;;;;;33.08;13.88;;;;;;;;;;5014420;28;20017;-66
2022/03/31 07:44:05;;;;;;;37.90;14.95;;;;;;;;;;5033062;28;20177;-66
2022/03/31 07:46:32;;;;;;;29.92;14.38;;;;;;;;;;5033408;28;20025;-66
2022/03/31 07:48:58;;;;;;;35.80;13.98;;;;;;;;;;5032763;28;20356;-66
2022/03/31 07:51:25;;;;;;;42.30;15.18;;;;;;;;;;5033178;28;20026;-66
2022/03/31 07:53:50;;;;;;;38.05;16.05;;;;;;;;;;5030317;28;20379;-66
2022/03/31 07:56:16;;;;;;;35.85;15.52;;;;;;;;;;5001002;28;20017;-66
2022/03/31 07:58:41;;;;;;;32.75;15.23;;;;;;;;;;5012794;28;20014;-66
2022/03/31 08:01:07;;;;;;;39.78;16.00;;;;;;;;;;5013122;28;20036;-66
2022/03/31 08:03:32;;;;;;;38.50;13.98;;;;;;;;;;5013110;28;20022;-66
2022/03/31 08:05:57;;;;;;;37.23;14.67;;;;;;;;;;5013127;28;20429;-65
2022/03/31 08:08:22;;;;;;;30.50;14.45;;;;;;;;;;5014508;28;20277;-66
2022/03/31 08:10:48;;;;;;;37.83;12.95;;;;;;;;;;5032247;28;20024;-66
2022/03/31 08:13:21;;;;;;;34.42;13.52;;;;;;;;;;5032474;28;20049;-66
2022/03/31 08:15:46;;;;;;;32.88;14.07;;;;;;;;;;5032634;28;20100;-66
2022/03/31 08:18:12;;;;;;;85.40;15.47;;;;;;;;;;5032507;28;20521;-66
2022/03/31 08:20:37;;;;;;;68.15;14.80;;;;;;;;;;5032131;28;20272;-66
2022/03/31 08:23:02;;;;;;;87.10;17.90;;;;;;;;;;5032320;28;20457;-66
2022/03/31 08:25:28;;;;;;;30.63;12.77;;;;;;;;;;5032032;28;20025;-66
2022/03/31 08:27:53;;;;;;;34.70;13.88;;;;;;;;;;5024677;28;20486;-66
2022/03/31 08:30:19;;;;;;;33.17;13.40;;;;;;;;;;5012796;28;20105;-66
2022/03/31 08:32:46;;;;;;;25.83;12.88;;;;;;;;;;5012618;28;20021;-66
2022/03/31 08:35:11;;;;;;;26.77;12.05;;;;;;;;;;5012957;28;20018;-66
2022/03/31 08:37:37;;;;;;;42.28;14.45;;;;;;;;;;5012620;28;20032;-66
2022/03/31 08:40:03;;;;;;;36.65;13.50;;;;;;;;;;5020833;28;20052;-66
2022/03/31 08:42:28;;;;;;;30.30;13.93;;;;;;;;;;5031704;28;20029;-66
2022/03/31 08:44:55;;;;;;;32.08;13.07;;;;;;;;;;5031957;28;20029;-67
2022/03/31 08:47:21;;;;;;;25.23;8.93;;;;;;;;;;5032057;28;20025;-66
2022/03/31 08:49:46;;;;;;;26.38;10.85;;;;;;;;;;5031809;28;20335;-66
2022/03/31 08:52:11;;;;;;;35.47;14.10;;;;;;;;;;5031548;28;20052;-66
2022/03/31 08:54:37;;;;;;;31.80;13.60;;;;;;;;;;5031740;28;20482;-66
2022/03/31 08:57:04;;;;;;;26.50;10.55;;;;;;;;;;5031392;28;20438;-66
2022/03/31 08:59:29;;;;;;;27.60;12.32;;;;;;;;;;5031543;28;20053;-66
2022/03/31 09:01:54;;;;;;;27.97;13.23;;;;;;;;;;5031556;28;20072;-66
2022/03/31 09:04:23;;;;;;;34.58;14.73;;;;;;;;;;5033245;28;20264;-66
2022/03/31 09:06:49;;;;;;;29.85;13.85;;;;;;;;;;5034580;28;20024;-67
2022/03/31 09:09:16;;;;;;;28.58;13.90;;;;;;;;;;5027238;28;20159;-66
2022/03/31 09:11:45;;;;;;;27.63;13.20;;;;;;;;;;5028791;28;20067;-66
2022/03/31 09:14:10;;;;;;;40.08;14.23;;;;;;;;;;5031120;28;20014;-66
2022/03/31 09:16:36;;;;;;;30.92;13.32;;;;;;;;;;5044547;28;20382;-66
2022/03/31 09:19:07;;;;;;;34.83;13.95;;;;;;;;;;5043655;28;20024;-66
2022/03/31 09:21:32;;;;;;;32.33;12.70;;;;;;;;;;5037292;28;20112;-66
2022/03/31 09:23:58;;;;;;;30.65;13.63;;;;;;;;;;5036695;28;20533;-66
2022/03/31 09:26:27;;;;;;;34.13;14.35;;;;;;;;;;5039681;28;20021;-66
2022/03/31 09:28:53;;;;;;;36.10;14.82;;;;;;;;;;5036307;28;20016;-66
2022/03/31 09:31:22;;;;;;;32.45;13.90;;;;;;;;;;5035877;28;20025;-66
2022/03/31 09:33:53;;;;;;;49.75;15.52;;;;;;;;;;5036709;28;20431;-66
2022/03/31 09:36:20;;;;;;;39.47;13.43;;;;;;;;;;5031387;28;20045;-66
2022/03/31 09:38:53;;;;;;;43.65;16.23;;;;;;;;;;5026848;28;20036;-66
2022/03/31 09:41:21;;;;;;;35.25;11.65;;;;;;;;;;5033396;28;20037;-66
2022/03/31 09:43:47;;;;;;;49.67;14.30;;;;;;;;;;5032275;28;20056;-65
2022/03/31 09:46:35;;;;;;;37.63;14.65;;;;;;;;;;5037573;28;20021;-65
2022/03/31 09:49:12;;;;;;;27.05;13.55;;;;;;;;;;5038472;28;20017;-65
2022/03/31 09:51:38;;;;;;;32.28;14.88;;;;;;;;;;5043938;28;20088;-65
2022/03/31 09:54:03;;;;;;;33.45;14.65;;;;;;;;;;5021645;28;20101;-65
2022/03/31 09:56:33;;;;;;;57.55;15.07;;;;;;;;;;5038669;28;20462;-65
2022/03/31 09:59:01;;;;;;;48.35;16.95;;;;;;;;;;5035368;28;20029;-65
2022/03/31 10:01:26;;;;;;;38.53;15.10;;;;;;;;;;5042815;28;20021;-65
2022/03/31 10:03:54;;;;;;;32.33;13.30;;;;;;;;;;5035650;28;20698;-65
2022/03/31 10:06:19;;;;;;;36.03;14.35;;;;;;;;;;5044387;28;20378;-65
2022/03/31 10:08:46;;;;;;;35.03;15.77;;;;;;;;;;5030555;28;20060;-65
2022/03/31 10:11:12;;;;;;;40.40;16.30;;;;;;;;;;5044018;28;20055;-65
2022/03/31 10:13:42;;;;;;;31.13;15.75;;;;;;;;;;5031182;28;20057;-65
2022/03/31 10:16:10;;;;;;;40.28;15.90;;;;;;;;;;5043457;28;20017;-65
2022/03/31 10:18:36;;;;;;;33.42;15.50;;;;;;;;;;5032158;28;20109;-65
2022/03/31 10:21:01;;;;;;;35.80;15.55;;;;;;;;;;5037386;28;20099;-65
2022/03/31 10:26:22;;;;;;;35.75;17.15;;;;;;;;;;5034088;28;20497;-69
2022/03/31 10:28:54;;;;;;;37.17;16.83;;;;;;;;;;5034611;28;20425;-65
2022/03/31 10:31:20;;;;;;;31.73;15.80;;;;;;;;;;5029166;28;20048;-65
2022/03/31 10:33:50;;;;;;;38.45;15.40;;;;;;;;;;5034593;28;20029;-65
2022/03/31 10:36:16;;;;;;;39.95;16.20;;;;;;;;;;5031500;28;20025;-65
2022/03/31 10:38:51;;;;;;;34.47;15.35;;;;;;;;;;5030945;28;20079;-65
2022/03/31 10:41:17;;;;;;;35.70;15.00;;;;;;;;;;5028690;28;20036;-65
2022/03/31 10:43:47;;;;;;;37.88;15.00;;;;;;;;;;5040445;28;20370;-65
2022/03/31 10:46:13;;;;;;;39.00;15.75;;;;;;;;;;5038834;28;20462;-65
2022/03/31 10:48:38;;;;;;;34.05;15.88;;;;;;;;;;5041758;28;20060;-66
2022/03/31 10:51:11;;;;;;;35.50;16.05;;;;;;;;;;5040348;28;20044;-66
2022/03/31 10:53:44;;;;;;;30.08;14.88;;;;;;;;;;5038212;28;20041;-66
2022/03/31 10:56:19;;;;;;;38.65;16.73;;;;;;;;;;5042703;28;20060;-66
2022/03/31 10:58:44;;;;;;;41.42;17.08;;;;;;;;;;5037653;28;20029;-66
2022/03/31 11:01:10;;;;;;;36.45;16.30;;;;;;;;;;5039694;28;20031;-66
2022/03/31 11:03:35;;;;;;;36.45;16.70;;;;;;;;;;5040032;28;20025;-66
2022/03/31 11:06:04;;;;;;;33.08;15.73;;;;;;;;;;5039740;28;20029;-66
2022/03/31 11:08:29;;;;;;;34.20;14.88;;;;;;;;;;5043979;28;20049;-66
2022/03/31 11:10:55;;;;;;;44.80;17.73;;;;;;;;;;5037495;28;20051;-66
2022/03/31 11:13:30;;;;;;;36.85;16.27;;;;;;;;;;5038608;28;20109;-66
2022/03/31 11:15:56;;;;;;;36.28;15.85;;;;;;;;;;5037562;28;20112;-66
2022/03/31 11:18:21;;;;;;;38.95;15.73;;;;;;;;;;5038655;28;20021;-66
2022/03/31 11:21:00;;;;;;;28.52;14.02;;;;;;;;;;5045437;28;20500;-66
2022/03/31 11:23:26;;;;;;;35.92;16.05;;;;;;;;;;5020938;28;20014;-66
2022/03/31 11:25:51;;;;;;;31.25;14.93;;;;;;;;;;5035567;28;20096;-66
2022/03/31 11:28:17;;;;;;;35.63;15.20;;;;;;;;;;5038563;28;20115;-66
2022/03/31 11:30:46;;;;;;;32.28;14.75;;;;;;;;;;5039130;28;20076;-66
2022/03/31 11:33:13;;;;;;;32.35;15.48;;;;;;;;;;5039835;28;20024;-66
2022/03/31 11:35:38;;;;;;;32.90;14.68;;;;;;;;;;5044172;28;20025;-66
2022/03/31 11:38:05;;;;;;;32.70;14.95;;;;;;;;;;5041157;28;20029;-66
2022/03/31 11:40:31;;;;;;;31.52;16.23;;;;;;;;;;5045259;28;20017;-66
2022/03/31 11:42:58;;;;;;;30.13;14.48;;;;;;;;;;5036063;28;20069;-66
2022/03/31 11:45:28;;;;;;;32.10;14.75;;;;;;;;;;5040905;28;20086;-66
2022/03/31 11:47:55;;;;;;;33.72;16.00;;;;;;;;;;5036958;28;20021;-66
2022/03/31 11:50:20;;;;;;;28.23;14.23;;;;;;;;;;5036272;28;20021;-66
2022/03/31 11:52:46;;;;;;;33.85;14.13;;;;;;;;;;5041666;28;20025;-66
2022/03/31 11:55:13;;;;;;;36.80;17.38;;;;;;;;;;5042982;28;20025;-66
2022/03/31 11:57:38;;;;;;;38.50;15.65;;;;;;;;;;5039421;28;20052;-66
2022/03/31 12:00:07;;;;;;;32.03;14.63;;;;;;;;;;5038028;28;20060;-66
2022/03/31 12:02:32;;;;;;;31.20;13.73;;;;;;;;;;5040890;28;20547;-66
2022/03/31 12:04:57;;;;;;;28.80;13.02;;;;;;;;;;5041943;28;20029;-66
2022/03/31 12:07:23;;;;;;;28.80;13.70;;;;;;;;;;5040863;28;20083;-66
2022/03/31 12:09:48;;;;;;;29.55;13.82;;;;;;;;;;5040508;28;20361;-66
2022/03/31 12:12:14;;;;;;;33.30;14.13;;;;;;;;;;5032326;28;20025;-66
2022/03/31 12:14:39;;;;;;;38.08;15.57;;;;;;;;;;5038258;28;20021;-66
2022/03/31 12:17:05;;;;;;;32.35;14.35;;;;;;;;;;5038598;28;20025;-66
2022/03/31 12:19:38;;;;;;;39.78;16.35;;;;;;;;;;5036962;28;20025;-66
2022/03/31 12:22:04;;;;;;;30.23;13.15;;;;;;;;;;5042788;28;20025;-66
2022/03/31 12:24:29;;;;;;;30.13;13.95;;;;;;;;;;5036848;28;20013;-66
2022/03/31 12:26:55;;;;;;;30.60;13.88;;;;;;;;;;5043154;28;20025;-67
2022/03/31 12:29:22;;;;;;;30.00;14.05;;;;;;;;;;5045981;28;20028;-66
2022/03/31 12:31:48;;;;;;;29.02;12.82;;;;;;;;;;5024998;28;20535;-67
2022/03/31 12:34:13;;;;;;;31.05;14.85;;;;;;;;;;5045348;28;20021;-67
2022/03/31 12:36:41;;;;;;;27.90;11.77;;;;;;;;;;5035066;28;20092;-68
2022/03/31 12:39:07;;;;;;;27.55;14.25;;;;;;;;;;5044662;28;20375;-67
2022/03/31 12:41:34;;;;;;;28.75;14.23;;;;;;;;;;5039305;28;20052;-67
2022/03/31 12:44:11;;;;;;;35.03;14.63;;;;;;;;;;5037713;28;20086;-67
2022/03/31 12:46:38;;;;;;;30.52;13.50;;;;;;;;;;5039183;28;20486;-67
2022/03/31 12:49:08;;;;;;;29.45;13.90;;;;;;;;;;5041336;28;20495;-66
2022/03/31 12:51:47;;;;;;;30.75;14.50;;;;;;;;;;5044306;28;20048;-66
2022/03/31 12:54:20;;;;;;;29.13;14.48;;;;;;;;;;5039581;28;20108;-66
2022/03/31 12:56:46;;;;;;;26.38;12.77;;;;;;;;;;5038360;28;20171;-66
2022/03/31 12:59:16;;;;;;;34.80;13.35;;;;;;;;;;5040733;28;20048;-66
2022/03/31 13:01:41;;;;;;;38.35;13.75;;;;;;;;;;5025299;28;20504;-66
2022/03/31 13:04:07;;;;;;;30.25;13.93;;;;;;;;;;5039576;28;20116;-67
2022/03/31 13:06:34;;;;;;;25.65;12.93;;;;;;;;;;5037257;28;20421;-66
2022/03/31 13:08:59;;;;;;;29.95;13.73;;;;;;;;;;5037944;28;20058;-66
2022/03/31 13:11:24;;;;;;;29.73;14.32;;;;;;;;;;5042392;28;20029;-66
2022/03/31 13:13:50;;;;;;;35.65;15.13;;;;;;;;;;5039184;28;20021;-66
2022/03/31 13:16:15;;;;;;;28.85;13.85;;;;;;;;;;5038323;28;20083;-66
2022/03/31 13:18:40;;;;;;;16.17;5.95;;;;;;;;;;5040528;28;20024;-66
2022/03/31 13:21:06;;;;;;;31.58;12.43;;;;;;;;;;5043649;28;20091;-67
2022/03/31 13:23:32;;;;;;;23.48;12.10;;;;;;;;;;5044984;28;20017;-66
2022/03/31 13:25:57;;;;;;;30.80;13.98;;;;;;;;;;5038880;28;20024;-66
2022/03/31 13:28:24;;;;;;;30.40;14.43;;;;;;;;;;5039077;28;20017;-66
2022/03/31 13:30:49;;;;;;;28.40;14.48;;;;;;;;;;5038431;28;20020;-66
2022/03/31 13:33:15;;;;;;;33.70;14.23;;;;;;;;;;5033215;28;20440;-66
2022/03/31 13:35:40;;;;;;;27.25;14.23;;;;;;;;;;5042032;28;20267;-66
2022/03/31 13:38:05;;;;;;;32.03;12.80;;;;;;;;;;5041354;28;20132;-66
2022/03/31 13:40:31;;;;;;;31.35;13.60;;;;;;;;;;5037679;28;20433;-66
2022/03/31 13:42:56;;;;;;;32.85;14.50;;;;;;;;;;5038051;28;20111;-66
2022/03/31 13:45:22;;;;;;;29.88;14.52;;;;;;;;;;5036811;28;20028;-66
2022/03/31 13:47:48;;;;;;;30.63;12.43;;;;;;;;;;5041173;28;20493;-66
2022/03/31 13:50:14;;;;;;;32.92;13.43;;;;;;;;;;5044172;28;20278;-66
2022/03/31 13:52:40;;;;;;;29.30;14.20;;;;;;;;;;5037053;28;20063;-66
2022/03/31 13:55:06;;;;;;;24.67;12.43;;;;;;;;;;5028282;28;20018;-66
2022/03/31 14:03:01;;;;;;;26.02;11.80;;;;;;;;;;5032934;28;20031;-66
2022/03/31 14:05:26;;;;;;;27.25;12.48;;;;;;;;;;5040537;28;20017;-66
2022/03/31 14:07:53;;;;;;;31.55;13.93;;;;;;;;;;5034423;28;20397;-66
2022/03/31 14:10:18;;;;;;;31.65;13.93;;;;;;;;;;5038213;28;20017;-66
2022/03/31 14:12:43;;;;;;;27.10;12.15;;;;;;;;;;5041325;28;20024;-67
2022/03/31 14:15:09;;;;;;;22.13;11.88;;;;;;;;;;5038555;28;20029;-66
2022/03/31 14:17:34;;;;;;;31.63;15.77;;;;;;;;;;5037185;28;20081;-66
2022/03/31 14:19:59;;;;;;;32.88;14.27;;;;;;;;;;5035193;28;20057;-66